Weather at Gilleleje Airstrip

Public forecast

Using degrees Celsius for public forecast. Weather courtesy of forecast.io.

Closest aviation weather report (METAR) to Gilleleje Airstrip

Closest report is Ängelholm-Helsingborg Airport, 20.9 nm (38.7 km) ENE. Retrieved 2021/10/16 02:20 UTC (26 minutes ago):

ESTA 160220Z AUTO 29016KT 9999 BKN027/// BKN036/// 10/05 Q1012

Closest aviation forecast (TAF) to Gilleleje Airstrip

Forecast is more than 12 hours old.

Closest forecast is Ljungbyhed Airport, 29.8 nm (55.2 km) E. Retrieved 2016/03/01 09:33 UTC (6 years ago):

TAF ESTL 010830Z 0109/0124 14004KT 9999 SCT025